Time;durP1;ratioP1;P1;durP2;ratioP2;P2;SDS_P1;SDS_P2;PMS_P1;PMS_P2;Temp;Humidity;BMP_temperature;BMP_pressure;BME280_temperature;BME280_humidity;BME280_pressure;Samples;Min_cycle;Max_cycle;Signal;HPM_P1;HPM_P2
2023/01/18 00:01:46;0.00;0.00;0.62;0.00;0.00;0.62;1.70;1.00;;;21.90;25.90;;;;;;2248277;61;20431;-56
2023/01/18 00:04:31;0.00;0.00;0.62;0.00;0.00;0.62;2.43;1.30;;;21.90;25.30;;;;;;2247090;61;20505;-61
2023/01/18 00:07:16;0.00;0.00;0.62;0.00;0.00;0.62;1.70;1.10;;;21.90;25.30;;;;;;2248619;61;20363;-60
2023/01/18 00:10:00;0.00;0.00;0.62;0.00;0.00;0.62;1.47;0.90;;;21.90;25.30;;;;;;2247733;61;20831;-59
2023/01/18 00:12:47;0.00;0.00;0.62;0.00;0.00;0.62;2.10;1.10;;;21.90;25.30;;;;;;2246759;61;20455;-59
2023/01/18 00:15:33;0.00;0.00;0.62;0.00;0.00;0.62;1.77;1.20;;;21.90;25.30;;;;;;2248522;61;20387;-59
2023/01/18 00:18:17;0.00;0.00;0.62;0.00;0.00;0.62;1.70;1.00;;;21.90;25.30;;;;;;2247328;61;20418;-63
2023/01/18 00:21:05;0.00;0.00;0.62;0.00;0.00;0.62;1.50;0.90;;;21.90;25.30;;;;;;2248129;61;20442;-60
2023/01/18 00:23:50;0.00;0.00;0.62;0.00;0.00;0.62;2.13;1.17;;;21.90;25.30;;;;;;2684496;45;20386;-62
2023/01/18 00:26:35;0.00;0.00;0.62;0.00;0.00;0.62;1.60;1.13;;;21.90;25.30;;;;;;2251180;61;20421;-62
2023/01/18 00:29:22;0.00;0.00;0.62;0.00;0.00;0.62;1.87;1.27;;;21.90;25.30;;;;;;2251719;61;20402;-59
2023/01/18 00:32:06;0.00;0.00;0.62;0.00;0.00;0.62;1.53;0.93;;;21.90;25.30;;;;;;2251174;61;20457;-62
2023/01/18 00:34:51;0.00;0.00;0.62;0.00;0.00;0.62;1.40;1.00;;;21.90;25.30;;;;;;2251665;61;20371;-65
2023/01/18 00:37:36;0.00;0.00;0.62;0.00;0.00;0.62;1.40;0.87;;;21.90;25.30;;;;;;2252731;61;20838;-65
2023/01/18 00:40:22;0.00;0.00;0.62;0.00;0.00;0.62;2.00;1.10;;;21.90;25.40;;;;;;2251842;61;20754;-64
2023/01/18 00:46:16;0.00;0.00;0.62;0.00;0.00;0.62;1.63;0.90;;;21.90;25.40;;;;;;2252193;61;20366;-62
2023/01/18 00:49:01;0.00;0.00;0.62;0.00;0.00;0.62;1.93;0.93;;;21.90;25.40;;;;;;2251742;61;20414;-61
2023/01/18 00:51:46;0.00;0.00;0.62;0.00;0.00;0.62;1.60;0.90;;;21.90;25.40;;;;;;2253169;61;20382;-66
2023/01/18 00:54:31;0.00;0.00;0.62;0.00;0.00;0.62;1.60;0.80;;;21.90;25.40;;;;;;2251806;61;20469;-61
2023/01/18 00:57:16;0.00;0.00;0.62;0.00;0.00;0.62;1.50;0.90;;;21.90;25.40;;;;;;2252354;61;20890;-64
2023/01/18 01:00:01;0.00;0.00;0.62;0.00;0.00;0.62;1.37;0.83;;;21.90;25.40;;;;;;2253011;61;20429;-65
2023/01/18 01:02:50;0.00;0.00;0.62;0.00;0.00;0.62;1.70;1.13;;;21.90;25.40;;;;;;2251418;61;20413;-62
2023/01/18 01:08:48;0.00;0.00;0.62;0.00;0.00;0.62;1.80;0.90;;;21.90;25.40;;;;;;2252618;61;20374;-62
2023/01/18 01:11:33;0.00;0.00;0.62;0.00;0.00;0.62;1.67;1.00;;;21.90;25.40;;;;;;2251765;61;20391;-64
2023/01/18 01:26:34;0.00;0.00;0.62;0.00;0.00;0.62;1.63;1.23;;;21.90;25.40;;;;;;2251858;61;20463;-61
2023/01/18 01:29:19;0.00;0.00;0.62;0.00;0.00;0.62;1.60;1.00;;;21.90;25.40;;;;;;2252695;61;20425;-65
2023/01/18 01:32:05;0.00;0.00;0.62;0.00;0.00;0.62;1.63;1.03;;;21.90;25.40;;;;;;2252041;61;20390;-59
2023/01/18 01:34:50;0.00;0.00;0.62;0.00;0.00;0.62;1.80;1.20;;;21.90;25.30;;;;;;2251255;61;20399;-67
2023/01/18 01:37:36;0.00;0.00;0.62;0.00;0.00;0.62;1.40;0.80;;;21.90;25.30;;;;;;2252986;61;20367;-62
2023/01/18 01:40:21;0.00;0.00;0.62;0.00;0.00;0.62;1.60;0.90;;;21.90;25.40;;;;;;2251838;61;20804;-66
2023/01/18 01:43:11;0.00;0.00;0.62;0.00;0.00;0.62;1.90;1.00;;;21.90;25.40;;;;;;2252456;61;20366;-61
2023/01/18 01:45:56;0.00;0.00;0.62;0.00;0.00;0.62;2.10;1.00;;;21.90;25.40;;;;;;2251741;61;20370;-64
2023/01/18 01:48:41;0.00;0.00;0.62;0.00;0.00;0.62;1.50;0.90;;;21.90;25.40;;;;;;2251898;61;20417;-59
2023/01/18 01:51:26;0.00;0.00;0.62;0.00;0.00;0.62;1.60;1.00;;;21.90;25.30;;;;;;2252379;61;20857;-61
2023/01/18 01:54:16;0.00;0.00;0.62;0.00;0.00;0.62;1.60;0.80;;;21.90;25.30;;;;;;2251887;61;20467;-64
2023/01/18 01:57:07;0.00;0.00;0.62;0.00;0.00;0.62;1.60;0.80;;;21.90;25.30;;;;;;2252271;61;20398;-62
2023/01/18 01:59:56;0.00;0.00;0.62;0.00;0.00;0.62;1.33;0.80;;;21.90;25.20;;;;;;2252022;61;20827;-60
2023/01/18 02:02:45;0.00;0.00;0.62;0.00;0.00;0.62;1.30;0.70;;;21.90;25.20;;;;;;2251385;61;20375;-63
2023/01/18 02:05:34;0.00;0.00;0.62;0.00;0.00;0.62;1.60;0.70;;;21.90;25.20;;;;;;2252447;61;20366;-61
2023/01/18 02:08:23;0.00;0.00;0.62;0.00;0.00;0.62;1.60;1.03;;;21.90;25.10;;;;;;2252183;61;20402;-62
2023/01/18 02:11:09;0.00;0.00;0.62;0.00;0.00;0.62;1.70;0.90;;;21.90;25.10;;;;;;2251843;61;20386;-64
2023/01/18 02:13:57;0.00;0.00;0.62;0.00;0.00;0.62;1.70;0.90;;;21.90;25.10;;;;;;2252375;61;20402;-62
2023/01/18 02:17:03;0.00;0.00;0.62;0.00;0.00;0.62;2.40;1.13;;;21.90;25.20;;;;;;2251693;61;20399;-62
2023/01/18 02:20:41;0.00;0.00;0.62;0.00;0.00;0.62;1.43;0.87;;;21.90;25.10;;;;;;2251421;61;20783;-63
2023/01/18 02:23:54;0.00;0.00;0.62;0.00;0.00;0.62;1.73;1.00;;;21.90;25.20;;;;;;2242908;61;20416;-62
2023/01/18 02:26:58;0.00;0.00;0.62;0.00;0.00;0.62;2.73;0.80;;;21.80;25.10;;;;;;2240380;61;20384;-59
2023/01/18 02:30:09;0.00;0.00;0.62;0.00;0.00;0.62;1.50;0.80;;;21.80;25.10;;;;;;2252579;61;20398;-63
2023/01/18 02:33:05;0.00;0.00;0.62;0.00;0.00;0.62;1.50;0.90;;;21.80;25.10;;;;;;2251698;61;20836;-64
2023/01/18 02:35:54;0.00;0.00;0.62;0.00;0.00;0.62;1.57;0.90;;;21.80;25.10;;;;;;2252381;61;20382;-60
2023/01/18 02:38:43;0.00;0.00;0.62;0.00;0.00;0.62;1.40;0.90;;;21.80;25.10;;;;;;2252121;61;20818;-62
2023/01/18 02:47:50;0.00;0.00;0.62;0.00;0.00;0.62;1.47;0.97;;;21.80;25.20;;;;;;2251724;61;20676;-63
2023/01/18 02:50:35;0.00;0.00;0.62;0.00;0.00;0.62;1.80;1.20;;;21.80;25.20;;;;;;2252244;61;20461;-61
2023/01/18 02:53:20;0.00;0.00;0.62;0.00;0.00;0.62;2.23;1.30;;;21.80;25.20;;;;;;2251604;61;20402;-64
2023/01/18 02:56:12;0.00;0.00;0.62;0.00;0.00;0.62;3.30;1.27;;;21.80;25.00;;;;;;2251865;61;20942;-63
2023/01/18 02:59:01;0.00;0.00;0.62;0.00;0.00;0.62;2.30;1.70;;;21.80;25.40;;;;;;2251912;61;20371;-65
2023/01/18 03:01:51;0.00;0.00;0.62;0.00;0.00;0.62;2.23;1.60;;;21.80;24.70;;;;;;2248317;61;20961;-62
2023/01/18 03:04:42;0.00;0.00;0.62;0.00;0.00;0.62;2.37;1.70;;;21.80;24.50;;;;;;2251790;61;20367;-59
2023/01/18 03:07:31;0.00;0.00;0.62;0.00;0.00;0.62;2.80;2.00;;;21.80;24.40;;;;;;2251875;61;20410;-62
2023/01/18 03:10:16;0.00;0.00;0.62;0.00;0.00;0.62;2.80;2.00;;;21.80;24.20;;;;;;2251356;61;20449;-66
2023/01/18 03:13:11;0.00;0.00;0.62;0.00;0.00;0.62;4.57;2.60;;;21.80;24.10;;;;;;2252263;61;20375;-61
2023/01/18 03:16:04;0.00;0.00;0.62;0.00;0.00;0.62;2.57;2.20;;;21.70;24.00;;;;;;2251477;61;20382;-63
2023/01/18 03:19:00;0.00;0.00;0.62;0.00;0.00;0.62;3.20;2.43;;;21.70;23.90;;;;;;2251995;61;20374;-65
2023/01/18 03:21:50;0.00;0.00;0.62;0.00;0.00;0.62;3.17;2.60;;;21.70;23.90;;;;;;2252232;61;20437;-64
2023/01/18 03:24:40;0.00;0.00;0.62;0.00;0.00;0.62;4.10;2.83;;;21.70;23.80;;;;;;2251038;61;20401;-59
2023/01/18 03:33:46;0.00;0.00;0.62;0.00;0.00;0.62;5.00;2.47;;;21.60;23.60;;;;;;2251497;61;20409;-61
2023/01/18 03:36:37;0.00;0.00;0.62;0.00;0.00;0.62;4.57;3.17;;;21.60;23.40;;;;;;2252569;61;20367;-60
2023/01/18 03:39:29;0.00;0.00;0.62;0.00;0.00;0.62;4.50;2.87;;;21.60;23.40;;;;;;2251281;61;20362;-64
2023/01/18 03:42:20;0.00;0.00;0.62;0.00;0.00;0.62;3.77;3.33;;;21.50;23.30;;;;;;2252208;61;20402;-59
2023/01/18 03:45:14;0.00;0.00;0.62;0.00;0.00;0.62;6.60;3.10;;;21.50;23.20;;;;;;2251482;61;20426;-61
2023/01/18 03:48:00;0.00;0.00;0.62;0.00;0.00;0.62;3.30;2.83;;;21.50;23.20;;;;;;2252037;61;20371;-61
2023/01/18 03:50:51;0.00;0.00;0.62;0.00;0.00;0.62;3.50;2.90;;;21.40;23.00;;;;;;2252118;61;20503;-60
2023/01/18 03:53:44;0.00;0.00;0.62;0.00;0.00;0.62;5.80;3.50;;;21.40;23.00;;;;;;2250890;61;20562;-63
2023/01/18 03:56:41;0.00;0.00;0.62;0.00;0.00;0.62;4.40;3.27;;;21.40;23.00;;;;;;2252167;61;20367;-62
2023/01/18 03:59:28;0.00;0.00;0.62;0.00;0.00;0.62;4.97;2.93;;;21.40;22.90;;;;;;2251757;61;20363;-61
2023/01/18 04:02:16;0.00;0.00;0.62;0.00;0.00;0.62;4.43;3.03;;;21.30;22.80;;;;;;2251439;61;20378;-61
2023/01/18 04:05:03;0.00;0.00;0.62;0.00;0.00;0.62;5.77;4.00;;;21.30;22.80;;;;;;2252124;61;20370;-63
2023/01/18 04:07:49;0.00;0.00;0.62;0.00;0.00;0.62;4.00;3.50;;;21.30;22.70;;;;;;2251702;61;20393;-64
2023/01/18 04:10:33;0.00;0.00;0.62;0.00;0.00;0.62;6.47;3.20;;;21.30;22.70;;;;;;2253167;61;20429;-64
2023/01/18 04:13:19;0.00;0.00;0.62;0.00;0.00;0.62;4.70;3.20;;;21.30;22.80;;;;;;2253018;61;20359;-67
2023/01/18 04:16:04;0.00;0.00;0.62;0.00;0.00;0.62;3.13;2.73;;;21.20;22.70;;;;;;2252516;61;20417;-64
2023/01/18 04:18:50;0.00;0.00;0.62;0.00;0.00;0.62;3.50;3.20;;;21.20;22.70;;;;;;2253121;61;20402;-61
2023/01/18 04:21:37;0.00;0.00;0.62;0.00;0.00;0.62;4.70;2.77;;;21.20;22.70;;;;;;2253052;61;20422;-62
2023/01/18 04:24:21;0.00;0.00;0.62;0.00;0.00;0.62;5.50;3.10;;;21.20;22.60;;;;;;2252479;61;20386;-62
2023/01/18 04:27:06;0.00;0.00;0.62;0.00;0.00;0.62;4.47;3.20;;;21.10;22.50;;;;;;2252835;61;20455;-64
2023/01/18 04:29:52;0.00;0.00;0.62;0.00;0.00;0.62;4.73;3.07;;;21.10;22.50;;;;;;2252429;61;20441;-59
2023/01/18 04:32:38;0.00;0.00;0.62;0.00;0.00;0.62;3.80;3.20;;;21.10;23.00;;;;;;2252506;61;20402;-61
2023/01/18 04:35:23;0.00;0.00;0.62;0.00;0.00;0.62;4.57;2.97;;;21.00;22.40;;;;;;2253425;61;20423;-62
2023/01/18 04:38:07;0.00;0.00;0.62;0.00;0.00;0.62;4.30;3.30;;;21.00;22.40;;;;;;2252136;61;20366;-61
2023/01/18 04:40:52;0.00;0.00;0.62;0.00;0.00;0.62;5.77;3.47;;;21.00;22.40;;;;;;2250226;61;20448;-61
2023/01/18 04:43:36;0.00;0.00;0.62;0.00;0.00;0.62;3.80;3.00;;;21.00;23.00;;;;;;2252782;61;20417;-61
2023/01/18 04:46:23;0.00;0.00;0.62;0.00;0.00;0.62;5.47;2.93;;;20.90;22.30;;;;;;2250762;61;20931;-64
2023/01/18 04:49:12;0.00;0.00;0.62;0.00;0.00;0.62;4.27;2.77;;;20.90;22.40;;;;;;2253600;61;20961;-60
2023/01/18 04:51:57;0.00;0.00;0.62;0.00;0.00;0.62;4.80;3.50;;;20.90;22.30;;;;;;2252673;61;20389;-63
2023/01/18 04:54:42;0.00;0.00;0.62;0.00;0.00;0.62;2.97;2.67;;;20.80;22.20;;;;;;2252714;61;20369;-61
2023/01/18 04:57:27;0.00;0.00;0.62;0.00;0.00;0.62;5.70;4.30;;;20.80;22.30;;;;;;2253504;61;21023;-60
2023/01/18 05:00:14;0.00;0.00;0.62;0.00;0.00;0.62;6.87;3.17;;;20.80;22.30;;;;;;2252537;61;20386;-63
2023/01/18 05:03:00;0.00;0.00;0.62;0.00;0.00;0.62;4.27;3.17;;;20.70;22.20;;;;;;2253207;61;20851;-62
2023/01/18 05:05:45;0.00;0.00;0.62;0.00;0.00;0.62;3.60;2.90;;;20.70;22.30;;;;;;2253146;61;20371;-65
2023/01/18 05:08:29;0.00;0.00;0.62;0.00;0.00;0.62;3.70;2.90;;;20.60;22.30;;;;;;2252725;61;20903;-60
2023/01/18 05:11:16;0.00;0.00;0.62;0.00;0.00;0.62;3.23;2.80;;;20.60;22.30;;;;;;2253287;61;20453;-58
2023/01/18 05:14:01;0.00;0.00;0.62;0.00;0.00;0.62;4.30;2.93;;;20.60;22.30;;;;;;2252516;61;20409;-61
2023/01/18 05:16:46;0.00;0.00;0.62;0.00;0.00;0.62;4.50;2.63;;;20.60;22.30;;;;;;2253316;61;20370;-63
2023/01/18 05:19:33;0.00;0.00;0.62;0.00;0.00;0.62;4.30;2.93;;;20.50;22.20;;;;;;2252935;61;20386;-63
2023/01/18 05:22:17;0.00;0.00;0.62;0.00;0.00;0.62;5.60;3.07;;;20.50;22.30;;;;;;2251894;61;20428;-61
2023/01/18 05:25:03;0.00;0.00;0.62;0.00;0.00;0.62;3.63;3.20;;;20.40;22.20;;;;;;2252252;61;21021;-62
2023/01/18 05:27:48;0.00;0.00;0.62;0.00;0.00;0.62;3.77;2.90;;;20.40;22.20;;;;;;2252730;61;20457;-61
2023/01/18 05:30:33;0.00;0.00;0.62;0.00;0.00;0.62;3.60;2.80;;;20.40;22.20;;;;;;2251742;61;20419;-62
2023/01/18 05:33:18;0.00;0.00;0.62;0.00;0.00;0.62;3.80;3.07;;;20.40;22.20;;;;;;2252663;61;21014;-64
2023/01/18 05:36:05;0.00;0.00;0.62;0.00;0.00;0.62;3.00;2.50;;;20.30;22.10;;;;;;2252099;61;20458;-62
2023/01/18 05:38:49;0.00;0.00;0.62;0.00;0.00;0.62;4.13;3.03;;;20.30;22.20;;;;;;2252553;61;20371;-61
2023/01/18 05:41:34;0.00;0.00;0.62;0.00;0.00;0.62;4.70;2.73;;;20.30;22.20;;;;;;2252656;61;20552;-61
2023/01/18 05:44:19;0.00;0.00;0.62;0.00;0.00;0.62;4.00;3.37;;;20.30;22.20;;;;;;2251663;61;20855;-66
2023/01/18 05:47:03;0.00;0.00;0.62;0.00;0.00;0.62;4.63;3.10;;;20.20;22.20;;;;;;2252084;61;20374;-57
2023/01/18 05:49:48;0.00;0.00;0.62;0.00;0.00;0.62;7.77;3.17;;;20.20;22.20;;;;;;2252534;61;20442;-64
2023/01/18 05:52:34;0.00;0.00;0.62;0.00;0.00;0.62;3.37;2.40;;;20.10;22.10;;;;;;2251301;61;20878;-62
2023/01/18 05:55:18;0.00;0.00;0.62;0.00;0.00;0.62;3.23;2.50;;;20.10;22.20;;;;;;2252711;61;20371;-64
2023/01/18 05:58:03;0.00;0.00;0.62;0.00;0.00;0.62;4.23;2.80;;;20.10;22.20;;;;;;2252129;61;20370;-59
2023/01/18 06:00:48;0.00;0.00;0.62;0.00;0.00;0.62;3.70;2.93;;;20.10;22.20;;;;;;2251699;61;20379;-62
2023/01/18 06:03:33;0.00;0.00;0.62;0.00;0.00;0.62;3.47;2.70;;;20.00;22.10;;;;;;2252666;61;20395;-60
2023/01/18 06:06:18;0.00;0.00;0.62;0.00;0.00;0.62;2.80;2.50;;;20.00;22.10;;;;;;2251171;61;20362;-60
2023/01/18 06:09:07;0.00;0.00;0.62;0.00;0.00;0.62;7.93;3.70;;;20.00;22.20;;;;;;2252043;61;20894;-58
2023/01/18 06:11:51;0.00;0.00;0.62;0.00;0.00;0.62;4.40;3.00;;;19.90;22.10;;;;;;2249717;61;20390;-63
2023/01/18 06:14:37;0.00;0.00;0.62;0.00;0.00;0.62;3.30;2.70;;;19.90;22.10;;;;;;2251347;61;20358;-60
2023/01/18 06:17:21;0.00;0.00;0.62;0.00;0.00;0.62;4.43;2.87;;;19.90;22.20;;;;;;2252672;61;20371;-60
2023/01/18 06:20:11;0.00;0.00;0.62;0.00;0.00;0.62;3.10;2.73;;;19.90;22.20;;;;;;2251784;61;20406;-61
2023/01/18 06:22:56;0.00;0.00;0.62;0.00;0.00;0.62;3.37;2.53;;;19.80;22.10;;;;;;2251728;61;20366;-60
2023/01/18 06:25:43;0.00;0.00;0.62;0.00;0.00;0.62;4.10;3.10;;;19.80;22.10;;;;;;2252659;61;20811;-63
2023/01/18 06:28:27;0.00;0.00;0.62;0.00;0.00;0.62;3.90;2.93;;;19.80;22.10;;;;;;2251932;61;20394;-63
2023/01/18 06:31:12;0.00;0.00;0.62;0.00;0.00;0.62;3.93;3.10;;;19.70;22.10;;;;;;2251823;61;20401;-62
2023/01/18 06:33:56;0.00;0.00;0.62;0.00;0.00;0.62;4.80;3.17;;;19.70;22.10;;;;;;2252262;61;20379;-60
2023/01/18 06:36:42;0.00;0.00;0.62;0.00;0.00;0.62;2.97;2.50;;;19.70;22.10;;;;;;2251351;61;20370;-58
2023/01/18 06:39:26;0.00;0.00;0.62;0.00;0.00;0.62;4.10;2.97;;;19.70;22.10;;;;;;2252487;61;20418;-61
2023/01/18 06:42:12;0.00;0.00;0.62;0.00;0.00;0.62;3.13;2.20;;;19.60;22.10;;;;;;2252024;61;20453;-61
2023/01/18 06:44:58;0.00;0.00;0.62;0.00;0.00;0.62;2.90;2.60;;;19.60;22.10;;;;;;2251767;61;20370;-61
2023/01/18 06:47:42;0.00;0.00;0.62;0.00;0.00;0.62;4.13;2.60;;;19.60;22.10;;;;;;2252560;61;20463;-59
2023/01/18 06:50:27;0.00;0.00;0.62;0.00;0.00;0.62;3.50;3.03;;;19.60;22.20;;;;;;2251579;61;20406;-64
2023/01/18 06:53:12;0.00;0.00;0.62;0.00;0.00;0.62;3.83;2.70;;;19.60;22.70;;;;;;2251685;61;20831;-59
2023/01/18 06:56:00;0.00;0.00;0.62;0.00;0.00;0.62;4.87;2.97;;;19.60;22.20;;;;;;2252660;61;20382;-58
2023/01/18 06:58:46;0.00;0.00;0.62;0.00;0.00;0.62;5.27;2.83;;;19.50;22.10;;;;;;2251259;61;20379;-64
2023/01/18 07:01:31;0.00;0.00;0.62;0.00;0.00;0.62;3.47;2.83;;;19.50;22.10;;;;;;2252432;61;20382;-61
2023/01/18 07:04:16;0.00;0.00;0.62;0.00;0.00;0.62;3.67;3.23;;;19.50;22.10;;;;;;2251746;61;20385;-55
2023/01/18 07:07:01;0.00;0.00;0.62;0.00;0.00;0.62;4.10;3.30;;;19.50;22.10;;;;;;2251809;61;20379;-61
2023/01/18 07:09:45;0.00;0.00;0.62;0.00;0.00;0.62;3.73;2.90;;;19.40;22.00;;;;;;2252304;61;20789;-61
2023/01/18 07:12:30;0.00;0.00;0.62;0.00;0.00;0.62;5.90;3.60;;;19.40;22.10;;;;;;2251617;61;20374;-60
2023/01/18 07:15:16;0.00;0.00;0.62;0.00;0.00;0.62;4.30;3.43;;;19.30;22.00;;;;;;2252232;61;20379;-57
2023/01/18 07:18:01;0.00;0.00;0.62;0.00;0.00;0.62;6.33;3.77;;;19.40;22.20;;;;;;2252549;61;20837;-64
2023/01/18 07:20:46;0.00;0.00;0.62;0.00;0.00;0.62;4.73;3.73;;;19.40;22.30;;;;;;2251273;61;20438;-62
2023/01/18 07:23:34;0.00;0.00;0.62;0.00;0.00;0.62;4.87;3.83;;;19.30;22.20;;;;;;2251741;61;20445;-60
2023/01/18 07:26:19;0.00;0.00;0.62;0.00;0.00;0.62;5.60;4.07;;;19.30;22.30;;;;;;2252082;61;20371;-61
2023/01/18 07:29:03;0.00;0.00;0.62;0.00;0.00;0.62;6.63;5.00;;;19.30;22.30;;;;;;2251427;61;20386;-60
2023/01/18 07:31:50;0.00;0.00;0.62;0.00;0.00;0.62;9.60;4.50;;;19.20;22.20;;;;;;2252356;61;20385;-61
2023/01/18 07:34:35;0.00;0.00;0.62;0.00;0.00;0.62;7.30;5.30;;;19.20;22.20;;;;;;2251281;61;20777;-62
2023/01/18 07:37:20;0.00;0.00;0.62;0.00;0.00;0.62;8.50;5.27;;;19.20;22.30;;;;;;2251935;61;20390;-61
2023/01/18 07:40:09;0.00;0.00;0.62;0.00;0.00;0.62;6.47;4.80;;;19.20;22.30;;;;;;2251944;61;20358;-58
2023/01/18 07:42:56;0.00;0.00;0.62;0.00;0.00;0.62;6.70;4.67;;;19.20;22.40;;;;;;2250895;61;20414;-65
2023/01/18 07:45:41;0.00;0.00;0.62;0.00;0.00;0.62;6.90;4.60;;;19.20;22.30;;;;;;2251863;61;20386;-60
2023/01/18 07:48:28;0.00;0.00;0.62;0.00;0.00;0.62;7.00;5.13;;;19.20;22.40;;;;;;2252440;61;20366;-63
2023/01/18 07:51:14;0.00;0.00;0.62;0.00;0.00;0.62;6.40;4.23;;;19.10;22.30;;;;;;2254507;61;21010;-63
2023/01/18 07:53:59;0.00;0.00;0.62;0.00;0.00;0.62;4.23;3.83;;;19.10;22.40;;;;;;2255302;61;20444;-63
2023/01/18 07:56:44;0.00;0.00;0.62;0.00;0.00;0.62;7.10;4.37;;;19.20;22.40;;;;;;2255927;61;20371;-62
2023/01/18 07:59:31;0.00;0.00;0.62;0.00;0.00;0.62;6.73;3.83;;;19.20;22.50;;;;;;2255232;61;20508;-60
2023/01/18 08:02:16;0.00;0.00;0.62;0.00;0.00;0.62;6.40;4.10;;;19.10;22.40;;;;;;2256275;61;20389;-66
2023/01/18 08:05:03;0.00;0.00;0.62;0.00;0.00;0.62;6.60;4.27;;;19.10;22.40;;;;;;2577715;45;20370;-62
2023/01/18 08:07:48;0.00;0.00;0.62;0.00;0.00;0.62;8.27;4.33;;;19.10;22.40;;;;;;2256178;61;20417;-62
2023/01/18 08:10:33;0.00;0.00;0.62;0.00;0.00;0.62;4.90;4.30;;;19.10;22.40;;;;;;2253233;61;20931;-58
2023/01/18 08:13:18;0.00;0.00;0.62;0.00;0.00;0.62;5.03;3.73;;;19.00;22.30;;;;;;2251359;61;20490;-63
2023/01/18 08:16:07;0.00;0.00;0.62;0.00;0.00;0.62;4.93;3.70;;;19.00;22.30;;;;;;2251369;61;20366;-61
2023/01/18 08:18:52;0.00;0.00;0.62;0.00;0.00;0.62;5.60;4.00;;;19.00;22.30;;;;;;2296387;58;20527;-57
2023/01/18 08:21:38;0.00;0.00;0.62;0.00;0.00;0.62;5.23;3.80;;;19.00;22.40;;;;;;2255266;61;20409;-56
2023/01/18 08:24:23;0.00;0.00;0.62;0.00;0.00;0.62;6.10;3.60;;;19.00;22.50;;;;;;2255545;61;20370;-59
2023/01/18 08:27:08;0.00;0.00;0.62;0.00;0.00;0.62;4.10;3.43;;;19.00;22.50;;;;;;2254962;61;20393;-63
2023/01/18 08:29:52;0.00;0.00;0.62;0.00;0.00;0.62;4.30;3.33;;;19.00;22.60;;;;;;2255522;61;20373;-57
2023/01/18 08:32:37;0.00;0.00;0.62;0.00;0.00;0.62;3.77;3.17;;;19.00;22.70;;;;;;2255551;61;20878;-62
2023/01/18 08:35:22;0.00;0.00;0.62;0.00;0.00;0.62;4.40;3.37;;;19.00;22.70;;;;;;2255398;61;20362;-60
2023/01/18 08:38:10;0.00;0.00;0.62;0.00;0.00;0.62;3.93;2.67;;;19.00;22.80;;;;;;2255489;61;20366;-62
2023/01/18 08:40:55;0.00;0.00;0.62;0.00;0.00;0.62;4.07;3.20;;;19.00;22.80;;;;;;2255586;61;20386;-62
2023/01/18 08:43:40;0.00;0.00;0.62;0.00;0.00;0.62;3.90;2.97;;;19.00;22.90;;;;;;2254937;61;20381;-61
2023/01/18 08:46:26;0.00;0.00;0.62;0.00;0.00;0.62;4.10;2.70;;;19.00;23.00;;;;;;2255712;61;20374;-62
2023/01/18 08:49:11;0.00;0.00;0.62;0.00;0.00;0.62;3.37;2.97;;;19.10;23.10;;;;;;2253748;61;20463;-59
2023/01/18 08:51:56;0.00;0.00;0.62;0.00;0.00;0.62;3.20;2.50;;;19.10;23.10;;;;;;2712484;45;20793;-58
2023/01/18 08:54:43;0.00;0.00;0.62;0.00;0.00;0.62;4.97;3.30;;;19.10;23.20;;;;;;2269091;58;20386;-57
2023/01/18 08:57:28;0.00;0.00;0.62;0.00;0.00;0.62;4.17;2.70;;;19.10;23.20;;;;;;2251966;61;20417;-60
2023/01/18 09:00:14;0.00;0.00;0.62;0.00;0.00;0.62;3.77;2.63;;;19.10;23.20;;;;;;2251845;61;20855;-61
2023/01/18 09:03:01;0.00;0.00;0.62;0.00;0.00;0.62;3.70;2.73;;;19.10;23.20;;;;;;2252326;61;20767;-59
2023/01/18 09:05:46;0.00;0.00;0.62;0.00;0.00;0.62;3.60;2.63;;;19.10;23.20;;;;;;2251919;61;20438;-62
2023/01/18 09:08:31;0.00;0.00;0.62;0.00;0.00;0.62;3.00;2.60;;;19.10;23.10;;;;;;2252164;61;20467;-57
2023/01/18 09:11:17;0.00;0.00;0.62;0.00;0.00;0.62;2.73;2.20;;;19.20;23.70;;;;;;2249374;61;20390;-60
2023/01/18 09:14:02;0.00;0.00;0.62;0.00;0.00;0.62;2.50;1.90;;;19.20;23.20;;;;;;2251764;61;20421;-63
2023/01/18 09:16:46;0.00;0.00;0.62;0.00;0.00;0.62;3.43;3.00;;;19.20;23.20;;;;;;2252248;61;20911;-58
2023/01/18 09:19:31;0.00;0.00;0.62;0.00;0.00;0.62;3.80;2.80;;;19.20;23.20;;;;;;2251806;61;20370;-59
2023/01/18 09:22:16;0.00;0.00;0.62;0.00;0.00;0.62;3.27;2.27;;;19.20;23.20;;;;;;2252211;61;20393;-62
2023/01/18 09:25:02;0.00;0.00;0.62;0.00;0.00;0.62;3.67;2.60;;;19.20;23.20;;;;;;2251566;61;20825;-61
2023/01/18 09:27:48;0.00;0.00;0.62;0.00;0.00;0.62;4.07;2.73;;;19.20;23.20;;;;;;2251243;61;20414;-60
2023/01/18 09:30:34;0.00;0.00;0.62;0.00;0.00;0.62;3.77;2.40;;;19.20;23.20;;;;;;2252160;61;20417;-60
2023/01/18 09:33:19;0.00;0.00;0.62;0.00;0.00;0.62;3.30;2.23;;;19.30;23.30;;;;;;2250838;61;20367;-62
2023/01/18 09:36:08;0.00;0.00;0.62;0.00;0.00;0.62;2.60;2.00;;;19.30;23.30;;;;;;2252262;61;20441;-63
2023/01/18 09:38:54;0.00;0.00;0.62;0.00;0.00;0.62;3.77;2.70;;;19.30;23.40;;;;;;2252671;61;20363;-63
2023/01/18 09:41:41;0.00;0.00;0.62;0.00;0.00;0.62;3.03;2.10;;;19.30;23.50;;;;;;2251599;61;20417;-64
2023/01/18 09:44:32;0.00;0.00;0.62;0.00;0.00;0.62;2.23;1.80;;;19.30;23.50;;;;;;2251873;61;20387;-60
2023/01/18 09:47:22;0.00;0.00;0.62;0.00;0.00;0.62;2.33;1.90;;;19.30;23.60;;;;;;2251857;61;20371;-64
2023/01/18 09:50:15;0.00;0.00;0.62;0.00;0.00;0.62;2.27;1.90;;;19.30;23.60;;;;;;2251321;61;20394;-62
2023/01/18 09:53:21;0.00;0.00;0.62;0.00;0.00;0.62;3.40;2.20;;;19.40;23.70;;;;;;2251911;61;21014;-57
2023/01/18 09:56:15;0.00;0.00;0.62;0.00;0.00;0.62;3.47;2.40;;;19.40;23.80;;;;;;2251631;61;20910;-62
2023/01/18 09:59:14;0.00;0.00;0.62;0.00;0.00;0.62;3.80;1.70;;;19.40;23.80;;;;;;2252334;61;20450;-63
2023/01/18 10:02:13;0.00;0.00;0.62;0.00;0.00;0.62;3.20;2.23;;;19.50;23.90;;;;;;2251600;61;20406;-66
2023/01/18 10:05:05;0.00;0.00;0.62;0.00;0.00;0.62;2.97;2.13;;;19.50;23.90;;;;;;2251880;61;20386;-62
2023/01/18 10:08:06;0.00;0.00;0.62;0.00;0.00;0.62;2.20;1.67;;;19.50;23.90;;;;;;2251848;61;20466;-58
2023/01/18 10:10:58;0.00;0.00;0.62;0.00;0.00;0.62;3.90;2.00;;;19.50;23.90;;;;;;2251066;61;20397;-61
2023/01/18 10:13:55;0.00;0.00;0.62;0.00;0.00;0.62;2.50;1.90;;;19.60;24.00;;;;;;2251358;61;20367;-59
2023/01/18 10:16:40;0.00;0.00;0.62;0.00;0.00;0.62;2.40;1.93;;;19.60;24.00;;;;;;2251609;61;20910;-56
2023/01/18 10:19:29;0.00;0.00;0.62;0.00;0.00;0.62;2.37;1.83;;;19.60;23.90;;;;;;2250935;61;20402;-61
2023/01/18 10:22:20;0.00;0.00;0.62;0.00;0.00;0.62;2.90;1.60;;;19.70;24.00;;;;;;2252144;61;20410;-62
2023/01/18 10:25:18;0.00;0.00;0.62;0.00;0.00;0.62;2.13;1.77;;;19.70;24.00;;;;;;2251282;61;20359;-61
2023/01/18 10:28:31;0.00;0.00;0.62;0.00;0.00;0.62;2.90;1.70;;;19.70;24.00;;;;;;2251426;61;20363;-57
2023/01/18 10:31:37;0.00;0.00;0.62;0.00;0.00;0.62;2.73;1.70;;;19.80;24.10;;;;;;2251556;61;20768;-61
2023/01/18 10:34:26;0.00;0.00;0.62;0.00;0.00;0.62;2.63;1.70;;;19.80;24.10;;;;;;2251285;61;20366;-56
2023/01/18 10:37:26;0.00;0.00;0.62;0.00;0.00;0.62;2.90;1.47;;;19.90;24.20;;;;;;2252247;61;20378;-54
2023/01/18 10:40:13;0.00;0.00;0.62;0.00;0.00;0.62;2.80;1.93;;;19.90;24.20;;;;;;2254018;61;20450;-58
2023/01/18 10:43:01;0.00;0.00;0.62;0.00;0.00;0.62;2.90;2.07;;;19.90;24.20;;;;;;2255649;61;20376;-58
2023/01/18 10:45:46;0.00;0.00;0.62;0.00;0.00;0.62;4.40;2.17;;;20.00;24.20;;;;;;2255722;61;20371;-63
2023/01/18 10:48:33;0.00;0.00;0.62;0.00;0.00;0.62;3.57;2.60;;;20.00;24.30;;;;;;2255408;61;20366;-61
2023/01/18 10:51:34;0.00;0.00;0.62;0.00;0.00;0.62;2.67;1.97;;;20.00;24.20;;;;;;2256170;61;20477;-63
2023/01/18 10:54:26;0.00;0.00;0.62;0.00;0.00;0.62;2.60;1.70;;;20.00;24.20;;;;;;2255311;61;20374;-64
2023/01/18 10:57:21;0.00;0.00;0.62;0.00;0.00;0.62;3.83;1.90;;;20.00;24.20;;;;;;2255276;61;20868;-62
2023/01/18 11:00:21;0.00;0.00;0.62;0.00;0.00;0.62;2.40;1.90;;;20.10;24.20;;;;;;2255725;61;20363;-65
2023/01/18 11:03:13;0.00;0.00;0.62;0.00;0.00;0.62;2.40;1.90;;;20.10;24.20;;;;;;2254923;61;20890;-66
2023/01/18 11:06:05;0.00;0.00;0.62;0.00;0.00;0.62;2.90;1.80;;;20.10;24.20;;;;;;2626136;45;20358;-63
2023/01/18 11:08:51;0.00;0.00;0.62;0.00;0.00;0.62;3.00;1.77;;;20.10;24.20;;;;;;2255811;61;20836;-61
2023/01/18 11:14:41;0.00;0.00;0.62;0.00;0.00;0.62;2.43;1.50;;;20.20;24.20;;;;;;2255795;61;20417;-59
2023/01/18 11:17:29;0.00;0.00;0.62;0.00;0.00;0.62;2.27;1.70;;;20.20;24.20;;;;;;2254553;61;20409;-62
2023/01/18 11:20:22;0.00;0.00;0.62;0.00;0.00;0.62;2.10;1.40;;;20.30;24.20;;;;;;2254354;61;20406;-68
2023/01/18 11:23:20;0.00;0.00;0.62;0.00;0.00;0.62;2.30;1.70;;;20.30;24.20;;;;;;2251279;61;20365;-58
2023/01/18 11:26:12;0.00;0.00;0.62;0.00;0.00;0.62;2.87;1.60;;;20.40;24.20;;;;;;2251399;61;20398;-65
2023/01/18 11:29:00;0.00;0.00;0.62;0.00;0.00;0.62;2.40;1.67;;;20.40;24.20;;;;;;2251498;61;20455;-62
2023/01/18 11:31:48;0.00;0.00;0.62;0.00;0.00;0.62;2.40;1.80;;;20.50;24.20;;;;;;2251346;61;20399;-61
2023/01/18 11:34:36;0.00;0.00;0.62;0.00;0.00;0.62;2.33;1.47;;;20.50;24.20;;;;;;2251312;61;20401;-57
2023/01/18 11:37:33;0.00;0.00;0.62;0.00;0.00;0.62;2.40;1.40;;;20.50;24.10;;;;;;2251564;61;20371;-60